createdAt,value
2018-07-21T00:02:22.265Z,78.90
2018-07-21T00:04:52.698Z,79.40
2018-07-21T00:07:22.810Z,79.50
2018-07-21T00:09:52.946Z,79.10
2018-07-21T00:12:23.590Z,79.40
2018-07-21T00:14:53.719Z,79.40
2018-07-21T00:17:23.828Z,79.40
2018-07-21T00:19:53.966Z,79.40
2018-07-21T00:22:24.067Z,80.00
2018-07-21T00:24:54.186Z,79.70
2018-07-21T00:27:24.352Z,80.00
2018-07-21T00:29:54.798Z,80.60
2018-07-21T00:32:25.270Z,80.90
2018-07-21T00:34:55.715Z,81.20
2018-07-21T00:37:25.842Z,81.20
2018-07-21T00:39:55.943Z,81.10
2018-07-21T00:42:26.096Z,81.60
2018-07-21T00:44:56.243Z,82.30
2018-07-21T00:47:26.388Z,81.90
2018-07-21T00:49:56.503Z,81.90
2018-07-21T00:52:26.645Z,81.60
2018-07-21T00:54:56.780Z,81.20
2018-07-21T00:57:26.925Z,81.60
2018-07-21T00:59:57.034Z,81.70
2018-07-21T01:02:27.248Z,81.20
2018-07-21T01:04:57.378Z,81.80
2018-07-21T01:07:27.514Z,81.80
2018-07-21T01:09:57.638Z,81.70
2018-07-21T01:12:28.010Z,81.20
2018-07-21T01:14:58.122Z,81.30
2018-07-21T01:17:28.274Z,81.10
2018-07-21T01:19:58.774Z,80.60
2018-07-21T01:22:28.954Z,80.30
2018-07-21T01:24:59.096Z,80.40
2018-07-21T01:27:29.519Z,79.50
2018-07-21T01:29:59.642Z,79.60
2018-07-21T01:32:29.800Z,79.40
2018-07-21T01:34:59.924Z,80.20
2018-07-21T01:37:30.039Z,79.90
2018-07-21T01:40:00.209Z,79.70
2018-07-21T01:42:30.314Z,80.10
2018-07-21T01:45:00.497Z,79.00
2018-07-21T01:47:30.191Z,79.40
2018-07-21T01:50:00.358Z,79.90
2018-07-21T01:52:30.490Z,80.60
2018-07-21T01:55:00.642Z,80.40
2018-07-21T01:57:31.258Z,80.50
2018-07-21T02:00:01.379Z,80.70
2018-07-21T02:02:31.526Z,80.70
2018-07-21T02:05:01.653Z,80.50
2018-07-21T02:07:31.834Z,80.10
2018-07-21T02:10:01.946Z,79.40
2018-07-21T02:12:32.104Z,79.60
2018-07-21T02:15:02.959Z,79.90
2018-07-21T02:17:33.450Z,80.40
2018-07-21T02:20:03.622Z,80.20
2018-07-21T02:22:33.739Z,80.90
2018-07-21T02:25:04.119Z,81.10
2018-07-21T02:27:34.255Z,79.80
2018-07-21T02:30:05.011Z,79.80
2018-07-21T02:32:35.504Z,80.10
2018-07-21T02:35:06.146Z,80.60
2018-07-21T02:37:36.482Z,80.20
2018-07-21T02:40:06.680Z,80.10
2018-07-21T02:42:36.830Z,80.20
2018-07-21T02:45:06.949Z,79.30
2018-07-21T02:47:37.095Z,79.90
2018-07-21T02:50:07.261Z,80.00
2018-07-21T02:52:37.617Z,79.40
2018-07-21T02:55:07.766Z,79.50
2018-07-21T02:57:37.859Z,79.70
2018-07-21T03:00:08.561Z,78.80
2018-07-21T03:02:38.707Z,78.80
2018-07-21T03:05:08.859Z,79.30
2018-07-21T03:07:38.949Z,79.40
2018-07-21T03:10:09.148Z,79.70
2018-07-21T03:12:39.868Z,79.60
2018-07-21T03:15:10.281Z,79.50
2018-07-21T03:17:40.395Z,79.50
2018-07-21T03:20:10.635Z,79.20
2018-07-21T03:22:40.718Z,78.40
2018-07-21T03:25:10.866Z,78.80
2018-07-21T03:27:41.055Z,79.30
2018-07-21T03:30:11.169Z,79.30
2018-07-21T03:32:41.298Z,79.00
2018-07-21T03:35:11.405Z,79.20
2018-07-21T03:37:41.532Z,79.30
2018-07-21T03:40:11.659Z,79.30
2018-07-21T03:42:41.790Z,79.40
2018-07-21T03:45:12.292Z,79.50
2018-07-21T03:47:42.398Z,78.80
2018-07-21T03:50:12.545Z,78.50
2018-07-21T03:52:42.690Z,78.60
2018-07-21T03:55:12.862Z,78.10
2018-07-21T03:57:43.134Z,78.20
2018-07-21T04:00:13.264Z,78.50
2018-07-21T04:02:43.754Z,78.40
2018-07-21T04:05:14.202Z,77.60
2018-07-21T04:07:44.354Z,78.90
2018-07-21T04:10:14.799Z,78.10
2018-07-21T04:12:44.971Z,78.20
2018-07-21T04:15:15.126Z,77.40
2018-07-21T04:17:45.246Z,77.70
2018-07-21T04:20:15.390Z,77.60
2018-07-21T04:22:45.505Z,77.80
2018-07-21T04:25:15.634Z,78.00
2018-07-21T04:27:45.766Z,78.00
2018-07-21T04:30:15.918Z,78.10
2018-07-21T04:32:46.046Z,77.60
2018-07-21T04:35:16.747Z,77.90
2018-07-21T04:37:46.846Z,78.00
2018-07-21T04:40:16.989Z,78.10
2018-07-21T04:42:47.090Z,78.20
2018-07-21T04:45:17.578Z,78.70
2018-07-21T04:47:47.749Z,79.00
2018-07-21T04:50:17.883Z,77.80
2018-07-21T04:52:48.032Z,78.60
2018-07-21T04:55:18.177Z,78.10
2018-07-21T04:57:48.310Z,78.20
2018-07-21T05:00:18.442Z,78.10
2018-07-21T05:02:48.582Z,78.10
2018-07-21T05:05:18.702Z,78.10
2018-07-21T05:07:48.859Z,77.60
2018-07-21T05:10:19.306Z,77.80
2018-07-21T05:12:49.494Z,79.30
2018-07-21T05:15:19.599Z,78.70
2018-07-21T05:17:49.734Z,77.80
2018-07-21T05:20:19.847Z,77.90
2018-07-21T05:22:50.338Z,76.80
2018-07-21T05:27:50.584Z,77.60
2018-07-21T05:30:20.690Z,77.70
2018-07-21T05:32:50.818Z,77.40
2018-07-21T05:35:20.938Z,78.00
2018-07-21T05:37:51.071Z,79.80
2018-07-21T05:40:21.566Z,78.60
2018-07-21T05:42:51.715Z,77.00
2018-07-21T05:45:22.211Z,77.50
2018-07-21T05:47:52.342Z,78.40
2018-07-21T05:50:22.446Z,78.10
2018-07-21T05:52:52.582Z,78.00
2018-07-21T05:55:22.763Z,78.20
2018-07-21T05:57:53.218Z,78.70
2018-07-21T06:00:23.390Z,78.90
2018-07-21T06:02:53.565Z,78.50
2018-07-21T06:05:23.841Z,78.50
2018-07-21T06:07:53.955Z,78.30
2018-07-21T06:10:24.086Z,79.10
2018-07-21T06:12:54.326Z,79.20
2018-07-21T06:15:24.439Z,79.20
2018-07-21T06:17:54.582Z,78.80
2018-07-21T06:20:24.734Z,79.00
2018-07-21T06:22:54.866Z,78.00
2018-07-21T06:25:24.969Z,78.00
2018-07-21T06:27:55.298Z,77.60
2018-07-21T06:30:25.770Z,78.30
2018-07-21T06:32:56.038Z,78.20
2018-07-21T06:35:26.416Z,78.90
2018-07-21T06:37:56.770Z,78.50
2018-07-21T06:40:26.908Z,77.30
2018-07-21T06:42:57.011Z,77.50
2018-07-21T06:45:27.163Z,77.00
2018-07-21T06:47:57.322Z,76.30
2018-07-21T06:50:27.434Z,75.30
2018-07-21T06:52:57.824Z,75.50
2018-07-21T06:55:27.940Z,72.70
2018-07-21T06:57:58.090Z,73.40
2018-07-21T07:00:28.209Z,73.20
2018-07-21T07:02:58.548Z,73.20
2018-07-21T07:05:28.651Z,70.80
2018-07-21T07:07:58.798Z,71.80
2018-07-21T07:10:29.294Z,70.40
2018-07-21T07:12:59.800Z,69.60
2018-07-21T07:15:29.923Z,70.30
2018-07-21T07:18:05.481Z,67.10
2018-07-21T07:20:35.573Z,66.50
2018-07-21T07:23:05.879Z,63.00
2018-07-21T07:25:36.003Z,64.60
2018-07-21T07:28:06.190Z,64.10
2018-07-21T07:30:36.325Z,64.80
2018-07-21T07:33:06.475Z,63.00
2018-07-21T07:35:36.653Z,62.90
2018-07-21T07:38:06.827Z,63.80
2018-07-21T07:40:36.946Z,65.20
2018-07-21T07:43:07.642Z,65.20
2018-07-21T07:45:37.790Z,64.80
2018-07-21T07:48:07.906Z,65.00
2018-07-21T07:50:38.062Z,61.60
2018-07-21T07:53:08.163Z,63.00
2018-07-21T07:55:38.310Z,61.90
2018-07-21T07:58:08.425Z,61.20
2018-07-21T08:00:38.593Z,61.70
2018-07-21T08:03:08.750Z,61.60
2018-07-21T08:05:38.899Z,61.80
2018-07-21T08:08:09.059Z,62.40
2018-07-21T08:10:39.210Z,61.40
2018-07-21T08:13:09.383Z,62.10
2018-07-21T08:15:39.222Z,62.70
2018-07-21T08:18:09.409Z,63.40
2018-07-21T08:20:39.756Z,61.00
2018-07-21T08:23:10.082Z,62.30
2018-07-21T08:25:40.219Z,60.50
2018-07-21T08:28:10.362Z,62.00
2018-07-21T08:30:40.842Z,62.20
2018-07-21T08:33:10.958Z,63.20
2018-07-21T08:35:41.091Z,61.60
2018-07-21T08:38:11.203Z,60.70
2018-07-21T08:40:41.358Z,60.80
2018-07-21T08:43:11.469Z,60.10
2018-07-21T08:45:41.759Z,59.70
2018-07-21T08:48:11.883Z,59.80
2018-07-21T08:50:42.031Z,58.80
2018-07-21T08:53:12.166Z,59.40
2018-07-21T08:55:42.323Z,60.00
2018-07-21T08:58:12.651Z,59.90
2018-07-21T09:00:42.774Z,60.00
2018-07-21T09:03:12.928Z,59.40
2018-07-21T09:05:42.780Z,59.80
2018-07-21T09:08:13.110Z,59.10
2018-07-21T09:10:42.936Z,60.20
2018-07-21T09:13:12.836Z,59.90
2018-07-21T09:15:43.152Z,59.00
2018-07-21T09:18:12.982Z,58.40
2018-07-21T09:20:43.142Z,58.90
2018-07-21T09:23:13.422Z,58.90
2018-07-21T09:25:43.599Z,59.10
2018-07-21T09:28:13.752Z,58.00
2018-07-21T09:30:44.158Z,57.50
2018-07-21T09:33:14.010Z,57.70
2018-07-21T09:35:43.886Z,57.10
2018-07-21T09:38:13.746Z,57.50
2018-07-21T09:40:43.870Z,58.40
2018-07-21T09:43:13.723Z,57.60
2018-07-21T09:45:43.562Z,58.30
2018-07-21T09:48:13.417Z,58.70
2018-07-21T09:50:43.244Z,58.00
2018-07-21T09:53:13.407Z,57.10
2018-07-21T09:55:43.598Z,57.60
2018-07-21T09:58:13.622Z,54.70
2018-07-21T10:00:48.734Z,55.60
2018-07-21T10:03:18.591Z,54.90
2018-07-21T10:05:48.742Z,54.60
2018-07-21T10:08:18.862Z,54.00
2018-07-21T10:10:48.722Z,53.50
2018-07-21T10:13:19.171Z,51.70
2018-07-21T10:15:49.120Z,52.50
2018-07-21T10:18:18.982Z,52.80
2018-07-21T10:20:48.886Z,51.60
2018-07-21T10:23:19.102Z,52.50
2018-07-21T10:25:54.322Z,51.20
2018-07-21T10:28:29.956Z,51.20
2018-07-21T10:30:59.990Z,51.90
2018-07-21T10:33:29.874Z,52.10
2018-07-21T10:35:59.937Z,50.60
2018-07-21T10:38:29.894Z,51.10
2018-07-21T10:40:59.755Z,51.20
2018-07-21T10:43:29.634Z,49.20
2018-07-21T10:45:59.458Z,50.60
2018-07-21T10:48:29.306Z,48.30
2018-07-21T10:50:59.132Z,48.50
2018-07-21T10:53:29.083Z,48.60
2018-07-21T10:55:59.074Z,49.00
2018-07-21T10:58:28.938Z,49.30
2018-07-21T11:00:58.809Z,48.10
2018-07-21T11:03:28.812Z,48.30
2018-07-21T11:05:58.662Z,48.40
2018-07-21T11:08:28.520Z,47.30
2018-07-21T11:10:58.382Z,47.90
2018-07-21T11:13:28.199Z,48.80
2018-07-21T11:15:58.059Z,49.00
2018-07-21T11:18:27.895Z,49.10
2018-07-21T11:20:57.746Z,46.90
2018-07-21T11:23:27.596Z,47.30
2018-07-21T11:25:57.438Z,47.20
2018-07-21T11:28:27.798Z,47.10
2018-07-21T11:30:57.623Z,45.80
2018-07-21T11:33:27.537Z,45.70
2018-07-21T11:35:57.537Z,44.30
2018-07-21T11:38:27.390Z,46.30
2018-07-21T11:40:57.242Z,46.00
2018-07-21T11:43:27.114Z,46.00
2018-07-21T11:45:56.954Z,45.80
2018-07-21T11:48:26.843Z,45.40
2018-07-21T11:50:57.017Z,44.60
2018-07-21T11:53:27.678Z,43.80
2018-07-21T11:55:57.537Z,45.10
2018-07-21T11:58:27.383Z,44.90
2018-07-21T12:00:57.248Z,45.10
2018-07-21T12:03:27.054Z,44.50
2018-07-21T12:05:56.902Z,44.30
2018-07-21T12:08:26.726Z,45.30
2018-07-21T12:10:57.451Z,44.60
2018-07-21T12:13:28.083Z,43.30
2018-07-21T12:15:58.134Z,43.10
2018-07-21T12:18:27.970Z,42.10
2018-07-21T12:20:57.824Z,43.30
2018-07-21T12:23:27.814Z,41.20
2018-07-21T12:25:57.684Z,43.10
2018-07-21T12:28:27.590Z,42.60
2018-07-21T12:30:58.067Z,42.50
2018-07-21T12:33:28.278Z,43.10
2018-07-21T12:35:58.158Z,42.00
2018-07-21T12:38:27.976Z,42.90
2018-07-21T12:40:57.850Z,42.70
2018-07-21T12:43:27.696Z,42.80
2018-07-21T12:45:57.506Z,42.20
2018-07-21T12:48:27.350Z,42.20
2018-07-21T12:50:57.201Z,41.10
2018-07-21T12:53:27.067Z,40.60
2018-07-21T12:55:56.910Z,40.00
2018-07-21T12:58:27.086Z,41.10
2018-07-21T13:00:56.958Z,40.80
2018-07-21T13:03:27.003Z,41.10
2018-07-21T13:05:56.902Z,41.70
2018-07-21T13:08:26.798Z,40.90
2018-07-21T13:10:56.866Z,41.70
2018-07-21T13:13:26.718Z,42.30
2018-07-21T13:15:56.558Z,42.90
2018-07-21T13:18:26.386Z,41.60
2018-07-21T13:20:56.282Z,39.70
2018-07-21T13:23:26.114Z,40.10
2018-07-21T13:25:56.310Z,40.70
2018-07-21T13:28:26.178Z,39.60
2018-07-21T13:30:56.068Z,40.60
2018-07-21T13:33:25.989Z,41.70
2018-07-21T13:35:56.315Z,40.80
2018-07-21T13:38:26.530Z,41.80
2018-07-21T13:40:56.509Z,42.20
2018-07-21T13:43:26.358Z,41.90
2018-07-21T13:45:56.238Z,40.70
2018-07-21T13:48:26.098Z,42.50
2018-07-21T13:53:25.931Z,42.10
2018-07-21T13:55:55.783Z,43.30
2018-07-21T13:58:25.974Z,41.00
2018-07-21T14:00:56.161Z,42.80
2018-07-21T14:03:26.491Z,41.30
2018-07-21T14:05:57.247Z,41.50
2018-07-21T14:08:27.139Z,41.10
2018-07-21T14:10:57.326Z,41.20
2018-07-21T14:13:27.195Z,42.10
2018-07-21T14:15:57.116Z,42.60
2018-07-21T14:18:27.083Z,43.30
2018-07-21T14:20:56.954Z,43.20
2018-07-21T14:23:26.778Z,42.40
2018-07-21T14:25:56.627Z,41.80
2018-07-21T14:28:26.486Z,42.60
2018-07-21T14:30:56.325Z,43.80
2018-07-21T14:33:26.135Z,42.60
2018-07-21T14:35:56.061Z,43.50
2018-07-21T14:38:26.006Z,44.30
2018-07-21T14:40:55.878Z,45.30
2018-07-21T14:43:25.727Z,44.00
2018-07-21T14:45:55.542Z,44.30
2018-07-21T14:48:25.395Z,43.40
2018-07-21T14:50:55.226Z,44.10
2018-07-21T14:53:25.066Z,44.60
2018-07-21T14:55:55.102Z,44.90
2018-07-21T14:58:25.298Z,45.20
2018-07-21T15:00:55.128Z,45.80
2018-07-21T15:03:24.979Z,44.50
2018-07-21T15:05:54.795Z,45.40
2018-07-21T15:08:24.841Z,47.20
2018-07-21T15:10:54.679Z,46.20
2018-07-21T15:13:24.538Z,47.00
2018-07-21T15:15:54.414Z,50.70
2018-07-21T15:18:24.230Z,53.90
2018-07-21T15:20:54.074Z,57.20
2018-07-21T15:23:23.930Z,59.70
2018-07-21T15:25:53.789Z,61.10
2018-07-21T15:28:23.622Z,64.70
2018-07-21T15:30:53.482Z,67.20
2018-07-21T15:33:23.366Z,68.30
2018-07-21T15:35:53.222Z,68.40
2018-07-21T15:38:23.075Z,67.30
2018-07-21T15:40:52.937Z,69.00
2018-07-21T15:43:22.767Z,70.30
2018-07-21T15:45:52.627Z,72.50
2018-07-21T15:48:22.490Z,73.60
2018-07-21T15:50:52.354Z,75.40
2018-07-21T15:53:22.222Z,76.30
2018-07-21T15:55:52.422Z,77.50
2018-07-21T15:58:22.250Z,78.50
2018-07-21T16:00:52.450Z,79.30
2018-07-21T16:03:22.276Z,79.10
2018-07-21T16:05:52.118Z,79.80
2018-07-21T16:08:22.242Z,81.60
2018-07-21T16:10:52.276Z,81.70
2018-07-21T16:13:22.091Z,83.40
2018-07-21T16:15:51.971Z,83.00
2018-07-21T16:18:22.140Z,83.50
2018-07-21T16:20:52.311Z,83.50
2018-07-21T16:23:22.179Z,84.30
2018-07-21T16:25:52.314Z,84.00
2018-07-21T16:28:22.846Z,84.20
2018-07-21T16:30:53.123Z,83.90
2018-07-21T16:33:23.291Z,85.10
2018-07-21T16:35:53.708Z,86.20
2018-07-21T16:38:23.878Z,84.90
2018-07-21T16:40:54.034Z,84.40
2018-07-21T16:43:24.242Z,84.50
2018-07-21T16:45:54.395Z,85.30
2018-07-21T16:48:24.254Z,84.30
2018-07-21T16:50:54.114Z,83.90
2018-07-21T16:53:24.250Z,83.20
2018-07-21T16:55:54.358Z,84.60
2018-07-21T16:58:24.705Z,83.80
2018-07-21T17:00:54.998Z,83.90
2018-07-21T17:03:25.146Z,84.40
2018-07-21T17:05:55.266Z,83.90
2018-07-21T17:08:25.180Z,83.40
2018-07-21T17:10:55.471Z,84.00
2018-07-21T17:13:25.626Z,84.80
2018-07-21T17:15:55.823Z,85.30
2018-07-21T17:18:26.295Z,85.80
2018-07-21T17:20:56.438Z,86.30
2018-07-21T17:23:26.590Z,87.00
2018-07-21T17:25:56.710Z,87.60
2018-07-21T17:28:26.850Z,87.20
2018-07-21T17:30:56.969Z,87.20
2018-07-21T17:33:27.469Z,86.80
2018-07-21T17:35:57.594Z,86.90
2018-07-21T17:38:27.746Z,87.30
2018-07-21T17:40:58.006Z,87.80
2018-07-21T17:43:28.172Z,87.90
2018-07-21T17:45:58.302Z,87.80
2018-07-21T17:48:28.455Z,87.70
2018-07-21T17:50:58.570Z,88.10
2018-07-21T17:53:28.734Z,87.80
2018-07-21T17:55:58.934Z,85.40
2018-07-21T17:58:29.095Z,86.10
2018-07-21T18:01:00.994Z,85.10
2018-07-21T18:03:31.119Z,86.60
2018-07-21T18:06:00.966Z,87.40
2018-07-21T18:08:31.118Z,87.50
2018-07-21T18:11:02.140Z,88.20
2018-07-21T18:13:33.134Z,88.40
2018-07-21T18:16:03.652Z,88.30
2018-07-21T18:18:33.962Z,88.00
2018-07-21T18:21:04.174Z,88.70
2018-07-21T18:23:34.322Z,88.70
2018-07-21T18:26:04.519Z,87.40
2018-07-21T18:28:34.358Z,87.60
2018-07-21T18:31:04.178Z,87.90
2018-07-21T18:36:10.650Z,89.50
2018-07-21T18:38:40.805Z,89.50
2018-07-21T18:41:11.062Z,89.60
2018-07-21T18:43:41.198Z,89.30
2018-07-21T18:46:11.314Z,89.20
2018-07-21T18:48:41.472Z,90.10
2018-07-21T18:51:11.615Z,90.50
2018-07-21T18:53:41.777Z,90.30
2018-07-21T18:56:11.926Z,90.00
2018-07-21T18:58:42.427Z,89.60
2018-07-21T19:01:12.666Z,90.10
2018-07-21T19:03:42.806Z,90.10
2018-07-21T19:06:12.954Z,90.10
2018-07-21T19:08:48.549Z,90.30
2018-07-21T19:11:19.111Z,90.40
2018-07-21T19:13:49.258Z,90.30
2018-07-21T19:16:26.083Z,90.50
2018-07-21T19:18:56.247Z,90.70
2018-07-21T19:21:26.432Z,90.80
2018-07-21T19:23:56.739Z,90.90
2018-07-21T19:26:32.306Z,90.80
2018-07-21T19:29:02.498Z,90.70
2018-07-21T19:31:32.618Z,90.60
2018-07-21T19:34:02.756Z,90.40
2018-07-21T19:36:34.123Z,90.40
2018-07-21T19:39:05.995Z,90.30
2018-07-21T19:44:11.519Z,90.30
2018-07-21T19:46:41.664Z,90.10
2018-07-21T19:49:11.802Z,90.40
2018-07-21T19:51:42.042Z,90.20
2018-07-21T19:54:12.191Z,90.10
2018-07-21T19:56:42.332Z,90.00
2018-07-21T19:59:12.670Z,89.80
2018-07-21T20:01:42.794Z,89.60
2018-07-21T20:04:13.082Z,89.70
2018-07-21T20:06:43.395Z,89.90
2018-07-21T20:09:13.558Z,89.80
2018-07-21T20:11:43.699Z,89.50
2018-07-21T20:14:13.835Z,89.50
2018-07-21T20:16:44.062Z,89.50
2018-07-21T20:19:14.274Z,88.90
2018-07-21T20:21:44.358Z,88.50
2018-07-21T20:24:14.533Z,88.40
2018-07-21T20:26:44.834Z,88.30
2018-07-21T20:29:15.151Z,87.30
2018-07-21T20:31:45.263Z,87.10
2018-07-21T20:34:15.464Z,86.50
2018-07-21T20:36:45.771Z,86.00
2018-07-21T20:39:16.562Z,85.60
2018-07-21T20:41:46.687Z,85.40
2018-07-21T20:44:16.830Z,84.90
2018-07-21T20:46:48.624Z,84.50
2018-07-21T20:49:18.806Z,84.40
2018-07-21T20:51:49.010Z,83.30
2018-07-21T20:54:20.366Z,82.50
2018-07-21T20:56:50.516Z,82.50
2018-07-21T20:59:21.508Z,82.20
2018-07-21T21:01:51.809Z,82.60
2018-07-21T21:04:21.959Z,82.20
2018-07-21T21:06:52.095Z,81.60
2018-07-21T21:09:22.294Z,82.10
2018-07-21T21:11:52.434Z,81.30
2018-07-21T21:14:22.570Z,81.30
2018-07-21T21:16:52.734Z,81.20
2018-07-21T21:19:22.830Z,81.10
2018-07-21T21:21:53.314Z,81.00
2018-07-21T21:24:23.431Z,81.80
2018-07-21T21:26:53.585Z,81.70
2018-07-21T21:29:23.751Z,81.30
2018-07-21T21:31:53.874Z,81.70
2018-07-21T21:34:24.032Z,82.00
2018-07-21T21:36:54.164Z,82.00
2018-07-21T21:39:24.320Z,81.60
2018-07-21T21:41:54.482Z,81.70
2018-07-21T21:44:24.815Z,83.00
2018-07-21T21:46:55.166Z,83.20
2018-07-21T21:49:26.536Z,83.00
2018-07-21T21:51:57.007Z,83.70
2018-07-21T21:54:27.226Z,83.60
2018-07-21T21:56:57.498Z,83.50
2018-07-21T21:59:27.663Z,83.40
2018-07-21T22:01:57.791Z,84.10
2018-07-21T22:04:28.015Z,84.10
2018-07-21T22:06:58.311Z,84.30
2018-07-21T22:09:28.470Z,84.40
2018-07-21T22:11:58.628Z,84.00
2018-07-21T22:14:28.847Z,84.20
2018-07-21T22:16:59.027Z,84.60
2018-07-21T22:19:29.255Z,84.60
2018-07-21T22:21:59.528Z,84.60
2018-07-21T22:24:30.001Z,84.50
2018-07-21T22:27:00.158Z,84.50
2018-07-21T22:29:30.339Z,84.00
2018-07-21T22:32:00.526Z,84.00
2018-07-21T22:34:30.702Z,84.10
2018-07-21T22:37:01.050Z,84.20
2018-07-21T22:39:31.224Z,84.20
2018-07-21T22:42:01.247Z,84.40
2018-07-21T22:44:31.431Z,84.20
2018-07-21T22:47:01.603Z,84.10
2018-07-21T22:49:31.740Z,83.50
2018-07-21T22:52:01.919Z,83.80
2018-07-21T22:54:32.043Z,84.60
2018-07-21T22:57:02.228Z,84.30
2018-07-21T22:59:32.371Z,84.00
2018-07-21T23:02:02.544Z,84.30
2018-07-21T23:04:32.744Z,84.60
2018-07-21T23:07:02.715Z,84.60
2018-07-21T23:09:32.887Z,84.40
2018-07-21T23:12:03.059Z,84.30
2018-07-21T23:14:33.234Z,84.70
2018-07-21T23:17:03.796Z,84.60
2018-07-21T23:19:33.940Z,84.60
2018-07-21T23:22:04.155Z,84.60
2018-07-21T23:24:34.295Z,85.00
2018-07-21T23:27:04.839Z,84.90
2018-07-21T23:29:34.975Z,85.10
2018-07-21T23:32:05.544Z,85.00
2018-07-21T23:34:35.716Z,84.60
2018-07-21T23:37:06.251Z,84.90
2018-07-21T23:39:36.467Z,85.90
2018-07-21T23:42:06.324Z,85.20
2018-07-21T23:44:36.488Z,86.50
2018-07-21T23:47:06.660Z,86.00
2018-07-21T23:49:36.510Z,85.80
2018-07-21T23:52:06.642Z,84.80
2018-07-21T23:54:36.822Z,84.60
2018-07-21T23:57:07.247Z,84.50
2018-07-21T23:59:37.370Z,84.50
